createdAt,value
2023-01-19T00:00:08.344Z,-2.6
2023-01-19T00:30:08.493Z,-2.71
2023-01-19T01:00:08.533Z,-3.11
2023-01-19T01:30:08.392Z,-3.43
2023-01-19T02:00:08.259Z,-3.68
2023-01-19T02:30:08.989Z,-3.95
2023-01-19T03:00:08.582Z,-4.43
2023-01-19T03:30:08.512Z,-4.63
2023-01-19T04:00:08.363Z,-4.85
2023-01-19T04:30:08.332Z,-5.1
2023-01-19T05:00:08.220Z,-5.39
2023-01-19T05:30:08.531Z,-5.52
2023-01-19T06:00:08.390Z,-5.85
2023-01-19T06:30:08.320Z,-5.93
2023-01-19T07:30:08.289Z,-6.0
2023-01-19T08:30:08.545Z,-5.09
2023-01-19T09:00:08.542Z,-3.76
2023-01-19T09:30:08.309Z,-1.97
2023-01-19T10:00:08.178Z,-1.01
2023-01-19T10:30:08.214Z,0.45
2023-01-19T11:30:08.352Z,3.57
2023-01-19T12:00:07.995Z,5.0
2023-01-19T12:30:08.320Z,5.92
2023-01-19T13:00:08.021Z,9.04
2023-01-19T13:30:07.974Z,9.8
2023-01-19T14:00:07.980Z,9.73
2023-01-19T14:30:08.091Z,6.31
2023-01-19T15:00:08.171Z,3.96
2023-01-19T15:30:08.059Z,2.35
2023-01-19T16:00:09.697Z,1.32
2023-01-19T16:30:07.968Z,0.21
2023-01-19T17:30:07.859Z,-1.16
2023-01-19T18:00:07.553Z,-1.61
2023-01-19T18:30:07.932Z,-2.02
2023-01-19T19:00:07.586Z,-2.4
2023-01-19T19:30:07.895Z,-2.86
2023-01-19T20:30:16.843Z,-3.27
2023-01-19T20:30:17.252Z,-3.21
2023-01-19T21:00:07.512Z,-2.9
2023-01-19T22:00:07.472Z,-2.61
2023-01-19T22:30:07.644Z,-2.24
2023-01-19T23:30:07.527Z,-2.43
